createdAt,value
2022-12-03T00:07:28.059Z,18.6
2022-12-03T00:37:46.223Z,16.2
2022-12-03T01:08:04.901Z,15.9
2022-12-03T01:38:23.410Z,17.7
2022-12-03T02:39:00.073Z,19.4
2022-12-03T03:39:35.981Z,14
2022-12-03T04:40:29.376Z,15.2
2022-12-03T05:10:48.630Z,14.7
2022-12-03T05:41:05.706Z,11.3
2022-12-03T06:11:23.798Z,11.8
2022-12-03T06:41:42.794Z,17.5
2022-12-03T07:12:00.386Z,11.5
2022-12-03T07:42:18.914Z,14.9
2022-12-03T08:12:38.556Z,13.3
2022-12-03T08:42:57.008Z,16.5
2022-12-03T09:13:16.468Z,16.9
2022-12-03T09:44:02.666Z,20.8
2022-12-03T10:14:01.075Z,21.6
2022-12-03T10:44:20.271Z,23.7
2022-12-03T11:14:42.603Z,16.6
2022-12-03T11:45:00.259Z,28
2022-12-03T12:15:19.706Z,23.7
2022-12-03T12:45:37.844Z,29.2
2022-12-03T13:15:55.925Z,22.6
2022-12-03T13:46:14.140Z,30.5
2022-12-03T14:16:32.979Z,20.9
2022-12-03T14:46:56.788Z,23.2
2022-12-03T15:17:15.541Z,23.1
2022-12-03T15:47:33.959Z,28.1
2022-12-03T16:17:52.780Z,29.7
2022-12-03T16:48:10.533Z,29.3
2022-12-03T17:18:28.144Z,30
2022-12-03T18:19:06.543Z,28.2
2022-12-03T18:49:23.904Z,24.7
2022-12-03T19:19:42.335Z,23.8
2022-12-03T19:50:05.286Z,34.2
2022-12-03T20:20:22.049Z,31.2
2022-12-03T20:50:40.956Z,30.7
2022-12-03T21:20:59.093Z,25.7
2022-12-03T21:51:17.643Z,26.1
2022-12-03T22:21:36.432Z,17.8
2022-12-03T22:51:54.015Z,17.7
2022-12-03T23:22:10.934Z,17.9
2022-12-03T23:52:27.448Z,19.2
